Sonic Adventure (DX): Time Rankings

Records: Times | Rings | Scores | Races | Bosses | Freestyle
Leaders: Times | Rings | Scores | Races | Bosses | Freestyle | Overall
Rank Player Percent Points Date
1 Sonicspeedruner 99.0% 48 04-25-15
2 Gamepro011 98.6% 72 04-25-15
3 Jawzun 96.2% 193 04-25-15
4 Dashjump 94.0% 310 04-25-15
5 DarkPolarNight 93.4% 341 04-25-15
6 THC98 92.1% 407 04-25-15
7 F-Man 91.6% 432 04-25-15
8 ike6252 90.4% 497 04-25-15
9 Avento128bits 90.2% 506 04-25-15
10 francisco 89.9% 518 04-25-15
11 DarkspinesSonic 89.6% 536 04-25-15
12 Marth 89.4% 547 04-25-15
13 frankoredstrato 88.1% 612 04-25-15
14 Paragod 84.9% 778 04-25-15
15 HyperSonic7701 84.8% 784 04-25-15
16 chainchumper 84.7% 790 04-25-15
17 drminus 83.4% 857 04-25-15
18 InferSaime 81.8% 939 04-25-15
19 TheRealShadnic 81.6% 948 04-25-15
20 Stefan 80.2% 1022 04-25-15
21 Redd 79.7% 1048 04-25-15
22 PfoSonic 79.6% 1054 04-25-15
23 Coolfansonic 78.0% 1139 04-25-15
24 bertin 77.8% 1149 04-25-15
25 yoshifan 77.3% 1175 04-25-15
26 xXMegaManXx 77.0% 1190 04-25-15
27 Dave Cramer 75.5% 1264 04-25-15
28 RPGnutter 75.0% 1291 04-25-15
29 Cybrax 73.4% 1375 04-25-15
30 sonicam 73.3% 1378 04-25-15
31 Ring Rush 70.5% 1524 04-25-15
32 mike89 69.7% 1567 04-25-15
33 NintenDan 69.5% 1578 04-25-15
34 SkyLights 65.6% 1777 04-25-15
35 Combo 64.0% 1859 04-25-15
36 SADXTryHard 62.2% 1956 04-25-15
37 P1 Pause 61.2% 2005 04-25-15
38 Nimrod 60.4% 2048 04-25-15
39 Game_Complete 59.4% 2098 04-25-15
40 Groudon199 59.3% 2106 04-25-15
41 Shadow Jacky 58.6% 2143 04-25-15
42 Dawid8404 58.4% 2152 04-25-15
43 VMU Player Banned 57.8% 2182 04-25-15
44 Thorn 57.2% 2214 04-25-15
45 Parax 56.1% 2271 04-25-15
46 SB737 56.0% 2275 04-25-15
46 The Knuckles Chao 56.0% 2275 04-25-15
48 SadisticMystic 55.7% 2289 04-25-15
49 Chao_Fan 55.6% 2296 04-25-15
50 KinkyCadence 55.3% 2311 04-25-15
51 mauserman 55.1% 2324 04-25-15
52 Mastakirby 54.9% 2332 04-25-15
53 Psyknux 54.7% 2342 04-25-15
54 OmegaDJ 54.6% 2347 04-25-15
55 LittleBigness 54.5% 2351 04-25-15
56 magnum12 53.7% 2393 04-25-15
57 Auriman1 53.7% 2395 04-25-15
58 Turbos 53.2% 2421 04-25-15
59 GreatStar 52.8% 2441 04-25-15
60 GerbilSoft 52.8% 2444 04-25-15
61 Webber3000 51.9% 2489 04-25-15
62 Hipertails12 51.7% 2497 04-25-15
63 James_Bertolli 48.7% 2655 04-25-15
64 Cream147 48.2% 2682 04-25-15
65 Skylace 47.9% 2694 04-25-15
66 welldooder64 47.7% 2706 04-25-15
67 Diamond 47.6% 2710 04-25-15
68 Omega Rafael Santos 47.6% 2713 04-25-15
69 Quartz 47.3% 2728 04-25-15
70 Psymar 47.1% 2739 04-25-15
71 SonicWinDX 46.2% 2781 04-25-15
72 teamblackarms 45.7% 2807 04-25-15
73 buddychaos0415 45.2% 2837 04-25-15
74 SilverSonic 44.9% 2848 04-25-15
75 WeegeeZV 44.3% 2881 04-25-15
76 itsPersonnal 44.3% 2882 04-25-15
77 Andrea Ritsu 44.1% 2891 04-25-15
78 SilvertheAlmighty 43.8% 2906 04-25-15
79 metanightmare22 42.9% 2953 04-25-15
80 lordmetalsonic 40.9% 3057 04-25-15
81 Arch 40.4% 3082 04-25-15
82 Termon 40.3% 3089 04-25-15
83 videogamemaster777 39.7% 3122 04-25-15
84 supersonicfan 39.2% 3144 04-25-15
85 Kanimayo_Jp 39.1% 3150 04-25-15
86 paulie9990 38.3% 3194 04-25-15
87 LilZero 38.2% 3198 04-25-15
88 FuzZerd 38.0% 3206 04-25-15
89 Don 37.5% 3233 04-25-15
90 eggFL 37.3% 3242 04-25-15
91 a_moustache 37.2% 3251 04-25-15
92 Fr3nZy 36.0% 3311 04-25-15
93 Siavash Tazari 36.0% 3313 04-25-15
94 Cod4Scopes 35.4% 3343 04-25-15
95 f0rever_zer0 34.8% 3373 04-25-15
96 Cyan Ryan 34.2% 3407 04-25-15
97 Austinf 34.1% 3409 04-25-15
98 Therio 34.0% 3415 04-25-15
99 supersonic465 34.0% 3417 04-25-15
100 LinksDarkArrows 33.9% 3422 04-25-15
101 danieldude 33.1% 3459 04-25-15
102 elecmouse101 32.9% 3474 04-25-15
103 Staf 32.7% 3483 04-25-15
104 BrokenArthritis 32.6% 3488 04-25-15
105 MiStEr_ShAoLiN 32.5% 3495 04-25-15
106 Xia 31.4% 3548 04-25-15
107 welshmoose05 30.9% 3575 04-25-15
108 Drakodan 30.5% 3598 04-25-15
109 Mcshuggets 30.0% 3620 04-25-15
110 The Great Lord Mick 29.7% 3635 04-25-15
111 Maxinfamily 29.5% 3648 04-25-15
112 joecoolgames 29.4% 3655 04-25-15
113 Aitamen 29.2% 3664 04-25-15
114 videogamer1014 29.1% 3668 04-25-15
115 Matt_TY 29.0% 3675 04-25-15
116 imazor017 28.9% 3679 04-25-15
117 dabestgamer 28.8% 3685 04-25-15
118 SuperSonic101 27.6% 3744 04-25-15
119 Shadowthegreat 27.5% 3753 04-25-15
119 superjupi 27.5% 3753 04-25-15
121 Hunters13 27.3% 3764 04-25-15
122 Rolken 26.9% 3782 04-25-15
123 SaviourDC 26.6% 3800 04-25-15
124 iarebored 26.5% 3805 04-25-15
125 sonamyfan666 26.2% 3817 04-25-15
126 Spinballwizard 26.1% 3823 04-25-15
127 SonicKnuckles 25.8% 3841 04-25-15
128 EngiNerd 25.0% 3882 04-25-15
129 adf 24.9% 3888 04-25-15
130 Megaman EXE565 24.3% 3916 04-25-15
131 The T 23.8% 3945 04-25-15
132 Platformer 23.3% 3970 04-25-15
133 Sonic Singularity 23.2% 3973 04-25-15
134 Pokemonmaster888 23.0% 3982 04-25-15
135 SeaWolf 23.0% 3986 04-25-15
136 timpkmn89 22.6% 4003 04-25-15
137 Swift Hobo 22.6% 4007 04-25-15
138 Rickyman48 22.2% 4026 04-25-15
139 Sondow 21.9% 4039 04-25-15
140 FoxBoy 21.3% 4074 04-25-15
140 KitsuneYamaro 21.3% 4074 04-25-15
142 TFEC Headshot 21.1% 4081 04-25-15
143 Kogen Player Banned 20.7% 4103 04-25-15
144 Starlight Sable 20.1% 4136 04-25-15
145 IsisDazs 19.5% 4165 04-25-15
146 HyperSonic64 19.4% 4173 04-25-15
147 crazy1993 18.9% 4199 04-25-15
148 andres430 18.6% 4210 04-25-15
149 MPit08 17.4% 4274 04-25-15
149 SonicAD 17.4% 4274 04-25-15
151 sonicd5 17.3% 4279 04-25-15
152 dShadow 16.7% 4309 04-25-15
152 iSonicKid2K 16.7% 4309 04-25-15
154 Miles9999 16.1% 4340 04-25-15
155 Cutiefox 16.0% 4345 04-25-15
156 Chawkk 16.0% 4346 04-25-15
157 BigAL49 16.0% 4348 04-25-15
158 Monkeh 15.7% 4364 04-25-15
159 DaDude 15.4% 4380 04-25-15
160 Drflash55 15.1% 4391 04-25-15
161 Yish 14.7% 4415 04-25-15
162 Bass 14.6% 4420 04-25-15
163 neaolas 14.5% 4426 04-25-15
164 UninspiredUsername 14.3% 4434 04-25-15
165 Cruizer 14.3% 4435 04-25-15
166 superiorsonic 14.3% 4436 04-25-15
167 zapp 14.1% 4444 04-25-15
168 gamefreak1292 13.9% 4457 04-25-15
169 Cooljay 13.2% 4490 04-25-15
170 SonicU260 12.9% 4507 04-25-15
171 Chaos_Overlord 12.9% 4509 04-25-15
172 ethmar 12.8% 4513 04-25-15
173 Valfore 12.4% 4532 04-25-15
174 GarnetPrincess 12.1% 4548 04-25-15
175 ShinigamiMachine 11.9% 4557 04-25-15
176 soniccoloursunleashed 11.9% 4559 04-25-15
177 Sonicsuperstar1 11.5% 4581 04-25-15
178 FocusSight64 11.1% 4603 04-25-15
179 booo95 10.9% 4610 04-25-15
180 SirTobbii 10.9% 4611 04-25-15
181 Werey 10.9% 4612 04-25-15
182 Mo Player Banned 10.6% 4629 04-25-15
183 sonicspeed 10.4% 4636 04-25-15
184 Venick409 10.0% 4660 04-25-15
185 Sithwarrior26 9.6% 4678 04-25-15
186 ingx24 9.2% 4697 04-25-15
187 CyberShadow 9.0% 4709 04-25-15
188 Fozer 8.7% 4723 04-25-15
189 Colomb_30 8.6% 4732 04-25-15
190 Regano1000 8.3% 4744 04-25-15
191 1stKirbyever 8.0% 4759 04-25-15
192 Brian_pso 7.8% 4772 04-25-15
193 nuckrieg 7.6% 4780 04-25-15
194 douglas 7.5% 4789 04-25-15
195 Th4tN1nj4Turtl3 7.4% 4791 04-25-15
196 TakaRikka 7.4% 4793 04-25-15
197 Zip 7.3% 4795 04-25-15
198 Mariosonic15 7.1% 4810 04-25-15
199 wheatrich 6.9% 4816 04-25-15
200 MStitomix 6.8% 4825 04-25-15
201 ieatatsonic 6.7% 4830 04-25-15
202 HermitHelmet 6.6% 4832 04-25-15
203 niscool 6.4% 4842 04-25-15
204 Cort_pso 6.4% 4844 04-25-15
205 Got4n 6.4% 4845 04-25-15
206 Triseena 6.4% 4846 04-25-15
207 Jose_15 6.1% 4861 04-25-15
208 Artie 5.9% 4871 04-25-15
209 BlankTH 5.8% 4873 04-25-15
210 SuperSonicfan9595 5.6% 4888 04-25-15
211 Ace747 5.5% 4889 04-25-15
212 Richied 5.5% 4892 04-25-15
213 Paixii 5.3% 4903 04-25-15
214 BallzeH 4.9% 4920 04-25-15
215 FSSRandomvids 4.9% 4921 04-25-15
215 slade23 4.9% 4921 04-25-15
217 ArcticDragon 4.9% 4923 04-25-15
218 Mankster101 4.8% 4925 04-25-15
219 PsyBorg 4.8% 4927 04-25-15
220 BecauseWarAnvil 4.8% 4929 04-25-15
221 Jamixesa 4.7% 4930 04-25-15
222 Crydio 4.6% 4935 04-25-15
223 Nickson98 4.6% 4938 04-25-15
224 TheUltraBlur 4.4% 4946 04-25-15
225 ReuelBrony 4.4% 4947 04-25-15
226 stanski 4.3% 4953 04-25-15
227 MarewBFN 4.2% 4957 04-25-15
228 tal39h 4.1% 4961 04-25-15
229 Blue Infamy 4.0% 4970 04-25-15
230 knuckles_sonic8 3.9% 4971 04-25-15
230 p0ker 3.9% 4971 04-25-15
232 ErrortheCucco 3.8% 4980 04-25-15
233 Rikum22 3.7% 4983 04-25-15
234 sonic1001 3.6% 4991 04-25-15
235 TheChaosEmeraIds 3.5% 4993 04-25-15
236 syco1098 3.4% 4998 04-25-15
237 AJSIV 3.4% 5001 04-25-15
238 Sonic the Hedgehod16 3.3% 5003 04-25-15
239 sonicfan9 3.3% 5006 04-25-15
240 Calfd 3.3% 5007 04-25-15
241 HHNNBBHHN 3.0% 5019 04-25-15
242 themachoman202 2.9% 5023 04-25-15
243 MK 2.9% 5026 04-25-15
244 BlackArmsShadow 2.8% 5032 04-25-15
244 Fivavoa 2.8% 5032 04-25-15
246 Mr. Jones 2.8% 5033 04-25-15
247 djmat 2.7% 5034 04-25-15
248 arcfx1985 2.7% 5035 04-25-15
248 ptorflaxendrosis 2.7% 5035 04-25-15
250 FlandreScarlet9999vr 2.6% 5040 04-25-15
250 Sonique Hedgehog 2.6% 5040 04-25-15
252 Zeldocto 2.5% 5045 04-25-15
253 KaM Mark MaK 2.4% 5049 04-25-15
254 BeeAwwb 2.4% 5053 04-25-15
255 ShadouZaHejjihoggu 2.3% 5056 04-25-15
256 darkstarblaze 2.2% 5064 04-25-15
257 darkersupershadic 2.1% 5065 04-25-15
258 SpiritDragon1995 2.1% 5066 04-25-15
259 sonic29887 2.1% 5068 04-25-15
260 Sarger001 2.0% 5070 04-25-15
261 Grady219 2.0% 5071 04-25-15
262 Jawaah 1.9% 5075 04-25-15
263 shadowblast63 Player Banned 1.9% 5076 04-25-15
264 Antek 1.9% 5079 04-25-15
265 Klaus 1.8% 5081 04-25-15
266 BioShadow 1.7% 5086 04-25-15
267 SkyBon 1.5% 5100 04-25-15
268 Shanekilz 1.4% 5102 04-25-15
269 isaihtb11 1.3% 5107 04-25-15
270 OhNoes! 1.3% 5108 04-25-15
271 zaktu40 1.3% 5109 04-25-15
272 gaara1234 1.2% 5112 04-25-15
273 S-MS32X-S 1.2% 5113 04-25-15
274 MastaToken 1.1% 5119 04-25-15
275 Mister_Slick 1.0% 5123 04-25-15
276 Sonic06Fan 1.0% 5125 04-25-15
277 Rush Hero 1.0% 5126 04-25-15
278 SonicMega167 0.9% 5129 04-25-15
279 gamed00d 0.8% 5132 04-25-15
279 SilverK 0.8% 5132 04-25-15
281 oTaiIilLsS 0.8% 5134 04-25-15
282 Egor305 0.7% 5141 04-25-15
283 Burningskull123 0.5% 5148 04-25-15
284 Heroes_Hater 0.5% 5150 04-25-15
285 Sonicontherun 0.3% 5158 04-25-15
286 antiwwe 0.2% 5164 04-25-15
287 Iwannabelink 0.2% 5167 04-25-15
288 Genuine Hedgehog 0.1% 5168 04-25-15
289 dragondragon18 0.1% 5171 04-25-15
290 SonicK100 0.1% 5172 04-25-15
291 Tyrouble 0.0% 5177 04-25-15
292 LancexExWx 0.0% 5178 04-25-15
292 neji_hyuuga 0.0% 5178 04-25-15
292 Over 0.0% 5178 04-25-15
292 sdj6707 Player Banned 0.0% 5178 04-25-15
292 Tran Sonic Fan Player Banned 0.0% 5178 04-25-15

This page is using the New Data Table System. [FUTURE]

Game ID: 3 | Category ID: 1
Hits: 7,265 | Hits This Month: 41 | DB Calls: 24 | Mem Usage: 5.44 MB | Time: 0.11s | Printable

The Sonic Center v3.9
Copyright 2003-2011 by The Sonic Center Team.